createdAt,value
2024-05-09T00:00:46.254Z,101642.73
2024-05-09T00:03:34.438Z,101641.14
2024-05-09T00:06:02.512Z,101636.77
2024-05-09T00:08:30.663Z,101635.36
2024-05-09T00:10:58.801Z,101635.02
2024-05-09T00:13:26.758Z,101636.96
2024-05-09T00:15:54.543Z,101639.08
2024-05-09T00:18:22.549Z,101646.27
2024-05-09T00:20:50.604Z,101643.27
2024-05-09T00:23:18.550Z,101641.84
2024-05-09T00:25:46.419Z,101638.02
2024-05-09T00:28:14.280Z,101635.77
2024-05-09T00:30:42.089Z,101637.73
2024-05-09T00:33:11.036Z,101641.94
2024-05-09T00:35:40.066Z,101640.35
2024-05-09T00:38:08.172Z,101643.16
2024-05-09T00:40:42.313Z,101639.29
2024-05-09T00:43:12.676Z,101633.49
2024-05-09T00:45:42.061Z,101639.83
2024-05-09T00:48:16.194Z,101637.88
2024-05-09T00:50:47.098Z,101635.42
2024-05-09T00:53:17.402Z,101628.07
2024-05-09T00:55:47.630Z,101623.55
2024-05-09T00:58:20.144Z,101620.60
2024-05-09T01:00:50.416Z,101618.50
2024-05-09T01:03:18.850Z,101620.63
2024-05-09T01:05:47.163Z,101621.67
2024-05-09T01:08:15.325Z,101624.84
2024-05-09T01:10:46.086Z,101619.74
2024-05-09T01:13:15.893Z,101621.33
2024-05-09T01:15:44.266Z,101624.11
2024-05-09T01:18:13.780Z,101626.79
2024-05-09T01:20:44.612Z,101627.69
2024-05-09T01:23:15.716Z,101625.42
2024-05-09T01:25:46.528Z,101625.05
2024-05-09T01:28:16.206Z,101627.86
2024-05-09T01:30:44.327Z,101628.57
2024-05-09T01:33:13.025Z,101627.17
2024-05-09T01:35:42.715Z,101628.93
2024-05-09T01:38:17.257Z,101627.03
2024-05-09T01:40:47.029Z,101620.90
2024-05-09T01:43:15.978Z,101615.84
2024-05-09T01:45:43.912Z,101611.47
2024-05-09T01:48:12.120Z,101610.60
2024-05-09T01:50:42.487Z,101613.41
2024-05-09T01:53:13.976Z,101613.41
2024-05-09T01:55:43.246Z,101616.05
2024-05-09T01:58:11.387Z,101615.89
2024-05-09T02:00:42.394Z,101608.36
2024-05-09T02:03:15.567Z,101607.33
2024-05-09T02:05:47.656Z,101605.41
2024-05-09T02:08:18.924Z,101613.65
2024-05-09T02:10:49.362Z,101618.20
2024-05-09T02:13:18.142Z,101622.58
2024-05-09T02:15:46.715Z,101619.97
2024-05-09T02:18:14.820Z,101618.38
2024-05-09T02:20:43.576Z,101618.21
2024-05-09T02:23:12.468Z,101617.52
2024-05-09T02:25:43.862Z,101615.58
2024-05-09T02:28:11.696Z,101618.21
2024-05-09T02:30:41.652Z,101620.67
2024-05-09T02:33:12.651Z,101624.86
2024-05-09T02:35:43.796Z,101625.73
2024-05-09T02:38:13.085Z,101626.09
2024-05-09T02:40:41.502Z,101626.45
2024-05-09T02:43:12.748Z,101625.55
2024-05-09T02:45:41.512Z,101629.25
2024-05-09T02:48:13.882Z,101632.40
2024-05-09T02:50:44.390Z,101626.10
2024-05-09T02:53:13.513Z,101627.52
2024-05-09T02:55:42.928Z,101629.44
2024-05-09T02:58:11.727Z,101632.06
2024-05-09T03:00:42.085Z,101628.73
2024-05-09T03:03:14.101Z,101625.23
2024-05-09T03:05:45.463Z,101627.48
2024-05-09T03:08:14.146Z,101633.79
2024-05-09T03:10:42.762Z,101635.54
2024-05-09T03:13:14.956Z,101641.49
2024-05-09T03:15:45.130Z,101640.98
2024-05-09T03:18:13.725Z,101645.52
2024-05-09T03:20:43.987Z,101646.58
2024-05-09T03:23:12.485Z,101646.77
2024-05-09T03:25:40.659Z,101645.00
2024-05-09T03:28:08.567Z,101651.66
2024-05-09T03:30:41.354Z,101650.43
2024-05-09T03:33:13.839Z,101656.71
2024-05-09T03:35:43.810Z,101653.55
2024-05-09T03:38:11.782Z,101660.20
2024-05-09T03:40:47.398Z,101655.67
2024-05-09T03:43:16.510Z,101652.67
2024-05-09T03:45:45.665Z,101652.17
2024-05-09T03:48:14.015Z,101659.88
2024-05-09T03:50:42.312Z,101663.04
2024-05-09T03:53:13.730Z,101664.76
2024-05-09T03:55:42.130Z,101666.17
2024-05-09T03:58:12.613Z,101664.59
2024-05-09T04:00:42.298Z,101665.45
2024-05-09T04:03:12.208Z,101663.71
2024-05-09T04:05:43.752Z,101661.79
2024-05-09T04:08:15.750Z,101660.73
2024-05-09T04:10:44.216Z,101656.70
2024-05-09T04:13:12.295Z,101658.66
2024-05-09T04:15:40.310Z,101661.28
2024-05-09T04:18:08.468Z,101668.10
2024-05-09T04:20:39.669Z,101672.64
2024-05-09T04:23:14.239Z,101678.40
2024-05-09T04:25:44.969Z,101685.58
2024-05-09T04:28:13.966Z,101692.23
2024-05-09T04:30:42.614Z,101696.25
2024-05-09T04:33:13.199Z,101698.50
2024-05-09T04:35:43.723Z,101698.86
2024-05-09T04:38:15.547Z,101699.73
2024-05-09T04:40:44.045Z,101697.98
2024-05-09T04:43:17.294Z,101699.38
2024-05-09T04:45:45.760Z,101699.20
2024-05-09T04:48:13.876Z,101703.04
2024-05-09T04:50:42.257Z,101704.42
2024-05-09T04:53:15.872Z,101707.73
2024-05-09T04:55:44.321Z,101708.77
2024-05-09T04:58:12.550Z,101711.40
2024-05-09T05:00:41.561Z,101711.05
2024-05-09T05:03:14.210Z,101712.63
2024-05-09T05:05:46.052Z,101712.98
2024-05-09T05:08:16.613Z,101713.70
2024-05-09T05:10:46.593Z,101714.92
2024-05-09T05:13:23.857Z,101711.43
2024-05-09T05:15:56.823Z,101707.39
2024-05-09T05:18:27.882Z,101703.55
2024-05-09T05:20:56.943Z,101702.34
2024-05-09T05:23:25.278Z,101703.92
2024-05-09T05:25:55.429Z,101707.05
2024-05-09T05:28:24.079Z,101712.30
2024-05-09T05:30:52.172Z,101716.86
2024-05-09T05:33:22.287Z,101721.58
2024-05-09T05:35:50.851Z,101717.55
2024-05-09T05:38:20.022Z,101710.52
2024-05-09T05:40:49.900Z,101703.84
2024-05-09T05:43:19.045Z,101701.20
2024-05-09T05:45:47.118Z,101704.55
2024-05-09T05:48:17.289Z,101705.58
2024-05-09T05:50:46.019Z,101709.91
2024-05-09T05:53:14.409Z,101710.20
2024-05-09T05:55:42.454Z,101711.22
2024-05-09T05:58:12.282Z,101710.13
2024-05-09T06:00:42.086Z,101703.44
2024-05-09T06:03:12.715Z,101708.83
2024-05-09T06:05:46.043Z,101713.87
2024-05-09T06:08:14.433Z,101715.77
2024-05-09T06:10:42.775Z,101713.08
2024-05-09T06:13:12.479Z,101715.95
2024-05-09T06:15:41.275Z,101715.70
2024-05-09T06:18:11.095Z,101714.23
2024-05-09T06:20:42.885Z,101715.65
2024-05-09T06:23:12.923Z,101715.91
2024-05-09T06:25:42.295Z,101713.45
2024-05-09T06:28:11.438Z,101709.93
2024-05-09T06:30:42.251Z,101710.31
2024-05-09T06:33:14.413Z,101711.16
2024-05-09T06:35:46.088Z,101714.24
2024-05-09T06:38:14.208Z,101706.86
2024-05-09T06:40:43.826Z,101707.84
2024-05-09T06:43:17.741Z,101705.90
2024-05-09T06:45:49.017Z,101703.50
2024-05-09T06:48:19.758Z,101702.18
2024-05-09T06:50:48.808Z,101705.42
2024-05-09T06:53:20.413Z,101710.27
2024-05-09T06:55:48.535Z,101713.97
2024-05-09T06:58:16.853Z,101711.50
2024-05-09T07:00:44.883Z,101713.73
2024-05-09T07:03:16.865Z,101717.23
2024-05-09T07:05:48.066Z,101713.94
2024-05-09T07:08:18.395Z,101704.48
2024-05-09T07:10:46.843Z,101703.27
2024-05-09T07:13:15.751Z,101698.23
2024-05-09T07:15:43.995Z,101699.59
2024-05-09T07:18:13.961Z,101696.15
2024-05-09T07:20:42.657Z,101696.58
2024-05-09T07:23:12.026Z,101701.19
2024-05-09T07:25:41.036Z,101706.29
2024-05-09T07:28:16.779Z,101705.78
2024-05-09T07:30:45.377Z,101708.71
2024-05-09T07:33:22.178Z,101706.43
2024-05-09T07:35:52.245Z,101712.91
2024-05-09T07:38:20.557Z,101713.98
2024-05-09T07:40:49.433Z,101716.83
2024-05-09T07:43:17.821Z,101714.16
2024-05-09T07:45:52.540Z,101707.69
2024-05-09T07:52:38.823Z,101713.34
2024-05-09T07:53:47.885Z,101714.77
2024-05-09T07:56:21.751Z,101715.33
2024-05-09T07:58:52.708Z,101717.56
2024-05-09T08:01:21.377Z,101713.27
2024-05-09T08:03:50.830Z,101704.64
2024-05-09T08:06:19.229Z,101699.49
2024-05-09T08:08:47.590Z,101693.84
2024-05-09T08:11:15.915Z,101697.67
2024-05-09T08:13:44.024Z,101698.66
2024-05-09T08:16:14.119Z,101692.34
2024-05-09T08:18:43.009Z,101694.52
2024-05-09T08:21:11.033Z,101699.53
2024-05-09T08:23:38.986Z,101700.36
2024-05-09T08:26:07.208Z,101697.52
2024-05-09T08:28:35.153Z,101698.80
2024-05-09T08:31:06.627Z,101698.45
2024-05-09T08:33:35.400Z,101697.24
2024-05-09T08:36:03.821Z,101704.94
2024-05-09T08:38:31.669Z,101701.65
2024-05-09T08:41:03.435Z,101704.36
2024-05-09T08:43:31.390Z,101704.02
2024-05-09T08:46:00.215Z,101705.73
2024-05-09T08:48:30.435Z,101706.22
2024-05-09T08:50:59.562Z,101702.06
2024-05-09T08:53:27.733Z,101704.31
2024-05-09T08:56:00.887Z,101703.51
2024-05-09T08:58:33.240Z,101701.15
2024-05-09T09:01:04.075Z,101695.76
2024-05-09T09:03:33.964Z,101693.90
2024-05-09T09:06:06.484Z,101694.45
2024-05-09T09:08:35.936Z,101692.89
2024-05-09T09:11:05.344Z,101689.09
2024-05-09T09:13:33.221Z,101683.32
2024-05-09T09:16:02.711Z,101681.09
2024-05-09T09:18:31.186Z,101678.99
2024-05-09T09:20:59.270Z,101673.41
2024-05-09T09:23:30.458Z,101674.14
2024-05-09T09:26:00.063Z,101674.96
2024-05-09T09:28:29.419Z,101669.33
2024-05-09T09:31:04.487Z,101670.17
2024-05-09T09:33:35.379Z,101666.95
2024-05-09T09:36:05.729Z,101667.58
2024-05-09T09:38:37.614Z,101669.48
2024-05-09T09:41:08.411Z,101668.68
2024-05-09T09:43:37.259Z,101669.48
2024-05-09T09:46:08.799Z,101665.89
2024-05-09T09:48:40.508Z,101667.07
2024-05-09T09:51:09.526Z,101666.75
2024-05-09T09:53:38.463Z,101668.17
2024-05-09T09:56:07.782Z,101668.39
2024-05-09T09:58:38.533Z,101671.63
2024-05-09T10:01:10.530Z,101667.69
2024-05-09T10:03:38.901Z,101669.21
2024-05-09T10:06:08.549Z,101665.22
2024-05-09T10:08:37.604Z,101673.87
2024-05-09T10:11:06.485Z,101674.27
2024-05-09T10:13:34.951Z,101674.02
2024-05-09T10:16:10.907Z,101678.59
2024-05-09T10:18:40.854Z,101671.27
2024-05-09T10:21:16.653Z,101671.61
2024-05-09T10:23:56.746Z,101670.23
2024-05-09T10:26:35.773Z,101668.57
2024-05-09T10:29:17.374Z,101672.48
2024-05-09T10:31:47.197Z,101666.41
2024-05-09T10:34:20.060Z,101662.11
2024-05-09T10:36:53.738Z,101665.45
2024-05-09T10:39:22.143Z,101660.13
2024-05-09T10:41:50.249Z,101661.52
2024-05-09T10:44:18.633Z,101659.27
2024-05-09T10:46:46.660Z,101661.17
2024-05-09T10:49:14.988Z,101660.58
2024-05-09T10:51:47.289Z,101662.49
2024-05-09T10:54:15.217Z,101662.84
2024-05-09T10:56:43.096Z,101660.40
2024-05-09T10:59:12.662Z,101661.09
2024-05-09T11:01:40.833Z,101660.55
2024-05-09T11:04:09.286Z,101661.15
2024-05-09T11:06:38.432Z,101659.11
2024-05-09T11:09:06.818Z,101655.80
2024-05-09T11:11:34.806Z,101650.23
2024-05-09T11:14:14.694Z,101650.69
2024-05-09T11:16:42.565Z,101647.99
2024-05-09T11:19:18.483Z,101647.80
2024-05-09T11:21:51.475Z,101641.40
2024-05-09T11:24:19.330Z,101639.05
2024-05-09T11:26:47.237Z,101641.36
2024-05-09T11:29:17.178Z,101635.39
2024-05-09T11:31:49.711Z,101630.83
2024-05-09T11:34:17.790Z,101629.83
2024-05-09T11:36:45.682Z,101627.00
2024-05-09T11:39:14.896Z,101626.08
2024-05-09T11:41:42.973Z,101624.23
2024-05-09T11:44:10.787Z,101621.09
2024-05-09T11:46:38.698Z,101619.06
2024-05-09T11:49:06.868Z,101612.77
2024-05-09T11:51:35.117Z,101603.58
2024-05-09T11:54:03.062Z,101604.80
2024-05-09T11:56:30.927Z,101604.13
2024-05-09T11:58:58.934Z,101600.44
2024-05-09T12:01:27.890Z,101594.30
2024-05-09T12:03:56.485Z,101601.24
2024-05-09T12:06:24.499Z,101594.30
2024-05-09T12:08:52.461Z,101591.77
2024-05-09T12:11:20.656Z,101589.42
2024-05-09T12:13:48.490Z,101585.45
2024-05-09T12:16:16.578Z,101586.13
2024-05-09T12:18:48.125Z,101583.84
2024-05-09T12:21:17.436Z,101576.52
2024-05-09T12:23:45.281Z,101578.63
2024-05-09T12:26:13.104Z,101573.81
2024-05-09T12:28:40.917Z,101575.00
2024-05-09T12:31:09.013Z,101574.59
2024-05-09T12:33:37.058Z,101570.27
2024-05-09T12:36:05.122Z,101567.96
2024-05-09T12:38:33.006Z,101568.69
2024-05-09T12:41:00.803Z,101570.98
2024-05-09T12:43:28.716Z,101570.77
2024-05-09T12:45:56.822Z,101571.58
2024-05-09T12:48:24.817Z,101568.17
2024-05-09T12:50:54.851Z,101565.23
2024-05-09T12:53:23.465Z,101564.80
2024-05-09T12:55:56.872Z,101568.14
2024-05-09T12:58:28.201Z,101571.46
2024-05-09T13:00:56.119Z,101567.03
2024-05-09T13:03:24.304Z,101562.66
2024-05-09T13:05:52.974Z,101558.24
2024-05-09T13:08:21.229Z,101558.92
2024-05-09T13:10:50.221Z,101558.63
2024-05-09T13:13:18.441Z,101561.87
2024-05-09T13:15:46.560Z,101557.23
2024-05-09T13:18:14.458Z,101554.10
2024-05-09T13:20:42.283Z,101550.20
2024-05-09T13:23:10.117Z,101547.98
2024-05-09T13:25:38.327Z,101542.75
2024-05-09T13:28:07.867Z,101540.49
2024-05-09T13:30:40.182Z,101540.00
2024-05-09T13:33:12.157Z,101537.32
2024-05-09T13:35:48.602Z,101535.75
2024-05-09T13:38:20.516Z,101533.22
2024-05-09T13:40:50.013Z,101533.02
2024-05-09T13:43:19.153Z,101534.65
2024-05-09T13:45:47.775Z,101532.59
2024-05-09T13:48:15.923Z,101535.38
2024-05-09T13:50:43.871Z,101529.72
2024-05-09T13:53:11.782Z,101530.32
2024-05-09T13:55:40.559Z,101530.10
2024-05-09T13:58:09.578Z,101527.92
2024-05-09T14:00:45.153Z,101529.08
2024-05-09T14:03:19.272Z,101528.14
2024-05-09T14:05:50.838Z,101523.14
2024-05-09T14:08:21.806Z,101520.66
2024-05-09T14:10:50.937Z,101516.55
2024-05-09T14:13:19.940Z,101518.76
2024-05-09T14:15:48.595Z,101514.63
2024-05-09T14:18:17.368Z,101516.20
2024-05-09T14:20:45.279Z,101514.78
2024-05-09T14:23:14.863Z,101513.83
2024-05-09T14:25:44.033Z,101515.64
2024-05-09T14:28:13.503Z,101517.93
2024-05-09T14:30:42.905Z,101522.52
2024-05-09T14:33:11.625Z,101520.90
2024-05-09T14:35:39.835Z,101520.17
2024-05-09T14:38:08.697Z,101517.88
2024-05-09T14:40:42.336Z,101518.31
2024-05-09T14:43:14.362Z,101518.34
2024-05-09T14:45:43.960Z,101516.23
2024-05-09T14:48:15.004Z,101519.84
2024-05-09T14:50:43.482Z,101522.39
2024-05-09T14:53:13.626Z,101519.53
2024-05-09T14:55:43.406Z,101518.30
2024-05-09T14:58:13.046Z,101522.25
2024-05-09T15:00:46.442Z,101520.86
2024-05-09T15:03:19.654Z,101520.49
2024-05-09T15:05:48.809Z,101514.14
2024-05-09T15:08:18.230Z,101516.00
2024-05-09T15:10:47.194Z,101516.41
2024-05-09T15:13:16.771Z,101517.62
2024-05-09T15:15:45.355Z,101516.05
2024-05-09T15:18:17.278Z,101515.91
2024-05-09T15:20:45.802Z,101515.34
2024-05-09T15:23:13.946Z,101516.48
2024-05-09T15:25:41.954Z,101516.75
2024-05-09T15:28:10.158Z,101519.55
2024-05-09T15:30:38.681Z,101521.27
2024-05-09T15:33:08.076Z,101524.38
2024-05-09T15:35:41.009Z,101527.92
2024-05-09T15:38:10.179Z,101528.02
2024-05-09T15:40:40.472Z,101529.70
2024-05-09T15:43:11.116Z,101530.16
2024-05-09T15:45:41.229Z,101529.08
2024-05-09T15:48:10.524Z,101527.46
2024-05-09T15:50:41.541Z,101526.97
2024-05-09T15:53:13.302Z,101529.86
2024-05-09T15:55:43.038Z,101534.09
2024-05-09T15:58:11.239Z,101529.94
2024-05-09T16:00:42.319Z,101536.28
2024-05-09T16:03:13.634Z,101536.47
2024-05-09T16:05:45.391Z,101535.89
2024-05-09T16:08:14.749Z,101535.84
2024-05-09T16:10:45.895Z,101535.36
2024-05-09T16:13:16.085Z,101534.78
2024-05-09T16:15:44.383Z,101539.52
2024-05-09T16:18:12.787Z,101541.29
2024-05-09T16:20:42.553Z,101545.94
2024-05-09T16:23:12.867Z,101547.14
2024-05-09T16:25:46.011Z,101553.07
2024-05-09T16:28:13.994Z,101554.63
2024-05-09T16:30:42.209Z,101556.00
2024-05-09T16:33:11.772Z,101552.73
2024-05-09T16:35:40.527Z,101553.71
2024-05-09T16:38:08.625Z,101555.23
2024-05-09T16:40:40.141Z,101556.00
2024-05-09T16:43:11.207Z,101556.54
2024-05-09T16:45:41.385Z,101564.50
2024-05-09T16:48:09.988Z,101558.81
2024-05-09T16:50:38.261Z,101565.30
2024-05-09T16:53:06.783Z,101564.27
2024-05-09T16:55:36.120Z,101566.87
2024-05-09T16:58:06.960Z,101571.08
2024-05-09T17:00:40.942Z,101573.43
2024-05-09T17:03:15.580Z,101574.73
2024-05-09T17:05:46.871Z,101572.90
2024-05-09T17:08:19.883Z,101573.05
2024-05-09T17:10:51.175Z,101573.50
2024-05-09T17:13:19.858Z,101574.27
2024-05-09T17:15:51.823Z,101573.60
2024-05-09T17:18:20.203Z,101575.80
2024-05-09T17:20:50.178Z,101580.77
2024-05-09T17:23:18.140Z,101584.77
2024-05-09T17:25:46.012Z,101588.20
2024-05-09T17:28:13.986Z,101593.60
2024-05-09T17:30:42.833Z,101597.77
2024-05-09T17:33:12.587Z,101604.20
2024-05-09T17:35:41.630Z,101605.17
2024-05-09T17:38:09.710Z,101605.44
2024-05-09T17:40:38.940Z,101611.30
2024-05-09T17:43:09.643Z,101610.13
2024-05-09T17:45:41.046Z,101609.84
2024-05-09T17:48:11.392Z,101611.16
2024-05-09T17:50:41.208Z,101617.22
2024-05-09T17:53:10.460Z,101623.95
2024-05-09T17:55:39.180Z,101627.23
2024-05-09T17:58:07.961Z,101631.23
2024-05-09T18:00:39.726Z,101636.27
2024-05-09T18:03:12.109Z,101638.84
2024-05-09T18:05:43.292Z,101643.19
2024-05-09T18:08:12.734Z,101646.24
2024-05-09T18:10:41.887Z,101650.55
2024-05-09T18:13:12.083Z,101653.26
2024-05-09T18:15:41.089Z,101656.31
2024-05-09T18:18:10.483Z,101662.38
2024-05-09T18:20:43.785Z,101660.67
2024-05-09T18:23:16.516Z,101661.85
2024-05-09T18:25:47.018Z,101660.27
2024-05-09T18:28:16.949Z,101660.31
2024-05-09T18:30:45.593Z,101664.88
2024-05-09T18:33:13.931Z,101667.54
2024-05-09T18:35:43.920Z,101671.71
2024-05-09T18:38:11.991Z,101675.07
2024-05-09T18:40:41.901Z,101677.18
2024-05-09T18:43:11.656Z,101676.77
2024-05-09T18:45:40.010Z,101682.35
2024-05-09T18:48:09.806Z,101681.60
2024-05-09T18:50:40.745Z,101687.09
2024-05-09T18:53:12.045Z,101688.88
2024-05-09T18:55:44.259Z,101689.56
2024-05-09T18:58:12.539Z,101694.23
2024-05-09T19:00:42.968Z,101697.23
2024-05-09T19:03:14.613Z,101699.17
2024-05-09T19:05:45.017Z,101697.10
2024-05-09T19:08:15.067Z,101697.98
2024-05-09T19:10:45.317Z,101698.08
2024-05-09T19:13:14.526Z,101703.80
2024-05-09T19:15:43.756Z,101704.77
2024-05-09T19:18:14.198Z,101707.11
2024-05-09T19:20:43.980Z,101709.78
2024-05-09T19:23:12.473Z,101711.25
2024-05-09T19:25:40.525Z,101709.27
2024-05-09T19:28:08.604Z,101706.39
2024-05-09T19:30:40.885Z,101707.91
2024-05-09T19:33:13.011Z,101705.77
2024-05-09T19:35:43.005Z,101709.67
2024-05-09T19:38:11.946Z,101708.12
2024-05-09T19:40:40.346Z,101702.90
2024-05-09T19:43:08.633Z,101708.52
2024-05-09T19:45:37.006Z,101709.27
2024-05-09T19:48:06.623Z,101708.43
2024-05-09T19:50:41.810Z,101707.96
2024-05-09T19:53:14.312Z,101709.90
2024-05-09T19:55:43.362Z,101709.80
2024-05-09T19:58:12.305Z,101709.52
2024-05-09T20:00:43.116Z,101706.14
2024-05-09T20:03:14.310Z,101709.08
2024-05-09T20:05:47.153Z,101714.66
2024-05-09T20:08:15.486Z,101713.26
2024-05-09T20:10:43.586Z,101715.36
2024-05-09T20:13:11.684Z,101714.30
2024-05-09T20:15:40.014Z,101713.98
2024-05-09T20:18:08.338Z,101712.75
2024-05-09T20:20:40.385Z,101711.27
2024-05-09T20:23:12.293Z,101714.62
2024-05-09T20:25:42.445Z,101713.73
2024-05-09T20:28:11.081Z,101717.63
2024-05-09T20:30:39.456Z,101717.49
2024-05-09T20:33:08.907Z,101719.29
2024-05-09T20:35:37.746Z,101715.27
2024-05-09T20:38:05.697Z,101713.94
2024-05-09T20:40:37.606Z,101712.80
2024-05-09T20:43:09.270Z,101715.29
2024-05-09T20:45:38.413Z,101711.81
2024-05-09T20:48:07.743Z,101711.68
2024-05-09T20:50:39.899Z,101712.25
2024-05-09T20:53:14.708Z,101712.62
2024-05-09T20:55:44.609Z,101712.46
2024-05-09T20:58:13.787Z,101712.48
2024-05-09T21:00:44.762Z,101710.73
2024-05-09T21:03:18.017Z,101712.30
2024-05-09T21:05:48.386Z,101710.91
2024-05-09T21:08:16.869Z,101711.95
2024-05-09T21:10:44.892Z,101707.06
2024-05-09T21:13:13.174Z,101708.10
2024-05-09T21:15:41.247Z,101713.20
2024-05-09T21:18:09.344Z,101715.51
2024-05-09T21:20:37.625Z,101714.63
2024-05-09T21:23:05.885Z,101716.04
2024-05-09T21:25:33.732Z,101710.45
2024-05-09T21:28:01.640Z,101711.70
2024-05-09T21:30:38.584Z,101716.11
2024-05-09T21:33:14.744Z,101716.48
2024-05-09T21:35:44.017Z,101716.31
2024-05-09T21:38:15.910Z,101720.02
2024-05-09T21:40:44.616Z,101720.58
2024-05-09T21:43:13.128Z,101717.09
2024-05-09T21:45:41.372Z,101717.61
2024-05-09T21:48:09.444Z,101716.56
2024-05-09T21:50:41.011Z,101721.48
2024-05-09T21:53:12.396Z,101722.39
2024-05-09T21:55:42.254Z,101726.59
2024-05-09T21:58:11.767Z,101727.83
2024-05-09T22:00:42.798Z,101724.33
2024-05-09T22:03:12.023Z,101726.41
2024-05-09T22:05:43.584Z,101728.15
2024-05-09T22:08:11.860Z,101727.98
2024-05-09T22:10:39.854Z,101728.38
2024-05-09T22:13:08.921Z,101728.23
2024-05-09T22:15:39.719Z,101729.08
2024-05-09T22:18:10.996Z,101732.39
2024-05-09T22:20:44.809Z,101727.67
2024-05-09T22:23:15.530Z,101725.92
2024-05-09T22:25:43.470Z,101724.69
2024-05-09T22:28:14.535Z,101727.66
2024-05-09T22:30:45.751Z,101722.42
2024-05-09T22:33:15.040Z,101720.16
2024-05-09T22:35:43.272Z,101717.89
2024-05-09T22:38:11.163Z,101715.63
2024-05-09T22:40:46.916Z,101718.60
2024-05-09T22:43:23.077Z,101715.45
2024-05-09T22:45:56.567Z,101711.42
2024-05-09T22:48:25.828Z,101709.87
2024-05-09T22:50:54.493Z,101704.64
2024-05-09T22:53:25.207Z,101702.73
2024-05-09T22:55:54.272Z,101702.21
2024-05-09T22:58:23.878Z,101697.31
2024-05-09T23:00:52.477Z,101693.45
2024-05-09T23:03:21.698Z,101693.10
2024-05-09T23:05:50.689Z,101690.30
2024-05-09T23:08:18.935Z,101694.50
2024-05-09T23:10:46.955Z,101695.55
2024-05-09T23:13:15.034Z,101690.83
2024-05-09T23:15:43.076Z,101691.88
2024-05-09T23:18:11.189Z,101694.15
2024-05-09T23:20:40.220Z,101690.98
2024-05-09T23:23:10.873Z,101691.85
2024-05-09T23:25:43.672Z,101691.68
2024-05-09T23:28:12.474Z,101688.88
2024-05-09T23:30:41.741Z,101685.39
2024-05-09T23:33:12.776Z,101685.02
2024-05-09T23:35:42.417Z,101684.84
2024-05-09T23:38:10.421Z,101687.98
2024-05-09T23:40:40.806Z,101690.39
2024-05-09T23:43:11.392Z,101688.98
2024-05-09T23:45:40.660Z,101685.84
2024-05-09T23:48:09.706Z,101688.28
2024-05-09T23:50:39.527Z,101686.69
2024-05-09T23:53:09.776Z,101689.83
2024-05-09T23:55:39.253Z,101693.15
2024-05-09T23:58:08.686Z,101692.61
